Time;durP1;ratioP1;P1;durP2;ratioP2;P2;SDS_P1;SDS_P2;PMS_P1;PMS_P2;Temp;Humidity;BMP_temperature;BMP_pressure;BME280_temperature;BME280_humidity;BME280_pressure;Samples;Min_cycle;Max_cycle;Signal;HPM_P1;HPM_P2
2021/12/31 00:00:21;;;;;;;4.35;0.77;;;12.80;99.90;;;;;;5044189;28;20048;-89
2021/12/31 00:02:47;;;;;;;7.20;0.55;;;12.80;99.90;;;;;;5094133;28;20098;-89
2021/12/31 00:05:12;;;;;;;6.07;0.80;;;12.80;99.90;;;;;;5094077;28;20505;-89
2021/12/31 00:07:38;;;;;;;3.03;1.02;;;12.80;99.90;;;;;;5076463;28;20075;-89
2021/12/31 00:10:06;;;;;;;4.22;1.70;;;12.80;99.90;;;;;;5077460;28;20040;-89
2021/12/31 00:12:32;;;;;;;1.08;0.68;;;12.80;99.90;;;;;;5060470;28;20087;-89
2021/12/31 00:14:58;;;;;;;5.63;1.42;;;12.80;99.90;;;;;;5060645;28;20083;-89
2021/12/31 00:17:24;;;;;;;0.82;0.47;;;12.80;99.90;;;;;;5076868;28;20078;-89
2021/12/31 00:19:59;;;;;;;2.40;0.80;;;12.80;99.90;;;;;;5060216;28;20043;-89
2021/12/31 00:22:53;;;;;;;5.90;1.35;;;12.80;99.90;;;;;;5093914;28;20044;-89
2021/12/31 00:25:18;;;;;;;3.55;1.60;;;12.80;99.90;;;;;;5076779;28;20161;-88
2021/12/31 00:27:44;;;;;;;6.45;1.55;;;12.80;99.90;;;;;;5059805;28;20071;-89
2021/12/31 00:30:10;;;;;;;5.57;1.85;;;12.80;99.90;;;;;;5060313;28;20068;-89
2021/12/31 00:32:37;;;;;;;5.88;1.17;;;12.90;99.90;;;;;;5060220;28;20477;-88
2021/12/31 00:35:04;;;;;;;2.83;1.15;;;12.90;99.90;;;;;;5076698;28;20063;-89
2021/12/31 00:37:35;;;;;;;12.65;1.10;;;12.90;99.90;;;;;;5059455;28;20070;-89
2021/12/31 00:40:10;;;;;;;5.78;1.00;;;12.90;99.90;;;;;;5059871;28;20228;-88
2021/12/31 00:42:36;;;;;;;2.72;1.00;;;12.90;99.90;;;;;;5060126;28;20043;-89
2021/12/31 00:45:03;;;;;;;2.55;1.10;;;12.90;99.90;;;;;;5060219;28;20413;-89
2021/12/31 00:47:29;;;;;;;4.75;0.95;;;13.00;99.90;;;;;;5059372;28;20040;-89
2021/12/31 00:49:54;;;;;;;5.38;1.15;;;13.00;99.90;;;;;;5077252;28;20039;-89
2021/12/31 00:52:20;;;;;;;6.95;1.20;;;13.00;99.90;;;;;;5096091;28;20065;-89
2021/12/31 00:54:46;;;;;;;5.32;0.82;;;13.00;99.90;;;;;;5080026;28;20396;-89
2021/12/31 00:57:11;;;;;;;6.85;1.17;;;13.00;99.90;;;;;;5079512;28;20472;-89
2021/12/31 00:59:37;;;;;;;2.78;0.88;;;13.00;99.90;;;;;;5079656;28;20039;-89
2021/12/31 01:02:05;;;;;;;2.33;1.25;;;13.00;99.90;;;;;;5079812;28;20039;-89
2021/12/31 01:04:32;;;;;;;2.55;0.35;;;13.00;99.90;;;;;;5077913;28;20040;-89
2021/12/31 01:06:58;;;;;;;2.50;1.08;;;13.00;99.90;;;;;;5058981;28;20036;-89
2021/12/31 01:09:25;;;;;;;1.60;0.38;;;13.00;99.90;;;;;;5059596;28;20051;-89
2021/12/31 01:11:50;;;;;;;2.35;1.00;;;13.00;99.90;;;;;;5059727;28;20086;-89
2021/12/31 01:14:34;;;;;;;3.78;0.70;;;13.00;99.90;;;;;;5076324;28;20089;-89
2021/12/31 01:17:03;;;;;;;4.50;1.45;;;13.00;99.90;;;;;;5059092;28;20076;-90
2021/12/31 01:19:50;;;;;;;3.20;0.43;;;13.00;99.90;;;;;;5059909;28;20084;-90
2021/12/31 01:22:23;;;;;;;1.60;1.15;;;12.90;99.90;;;;;;5059270;28;20044;-89
2021/12/31 01:24:49;;;;;;;6.32;1.05;;;12.90;99.90;;;;;;5059647;28;20047;-90
2021/12/31 01:27:15;;;;;;;3.90;1.52;;;12.90;99.90;;;;;;5058728;28;20095;-89
2021/12/31 01:29:41;;;;;;;3.65;0.63;;;12.90;99.90;;;;;;5076004;28;20044;-90
2021/12/31 01:32:07;;;;;;;1.45;1.13;;;12.90;99.90;;;;;;5059571;28;20043;-90
2021/12/31 01:34:33;;;;;;;6.43;0.47;;;12.90;99.90;;;;;;5059544;28;20389;-90
2021/12/31 01:36:59;;;;;;;1.10;0.65;;;12.90;99.90;;;;;;5063098;28;20043;-89
2021/12/31 01:39:26;;;;;;;1.27;0.82;;;12.80;99.90;;;;;;5075902;28;20505;-89
2021/12/31 01:41:52;;;;;;;0.40;0.28;;;12.80;99.90;;;;;;5059132;28;20218;-90
2021/12/31 01:44:20;;;;;;;1.38;0.77;;;12.90;99.90;;;;;;5059443;28;20071;-89
2021/12/31 01:46:57;;;;;;;1.67;0.52;;;13.00;99.90;;;;;;5075178;28;20448;-89
2021/12/31 01:49:27;;;;;;;1.65;0.40;;;13.00;99.90;;;;;;5075632;28;20115;-89
2021/12/31 01:51:53;;;;;;;2.97;0.95;;;13.00;99.90;;;;;;5058847;28;20032;-89
2021/12/31 01:54:18;;;;;;;0.65;0.45;;;13.00;99.90;;;;;;5059737;28;20085;-89
2021/12/31 01:56:45;;;;;;;1.80;0.68;;;13.00;99.90;;;;;;5078062;28;20046;-90
2021/12/31 01:59:12;;;;;;;2.08;0.65;;;13.00;99.90;;;;;;5078842;28;20484;-89
2021/12/31 02:01:38;;;;;;;0.45;0.35;;;13.00;99.90;;;;;;5078884;28;20050;-89
2021/12/31 02:04:05;;;;;;;3.17;1.27;;;13.00;99.90;;;;;;5079328;28;20126;-89
2021/12/31 02:06:32;;;;;;;1.35;0.50;;;13.10;99.90;;;;;;5099627;28;20039;-89
2021/12/31 02:08:58;;;;;;;3.53;1.55;;;13.10;99.90;;;;;;5062979;28;20435;-89
2021/12/31 02:11:23;;;;;;;2.05;0.70;;;13.10;99.90;;;;;;5062724;28;20031;-89
2021/12/31 02:13:49;;;;;;;3.60;1.58;;;13.10;99.90;;;;;;5062924;28;20123;-89
2021/12/31 02:16:14;;;;;;;3.15;0.52;;;13.00;99.90;;;;;;5062452;28;20036;-89
2021/12/31 02:18:43;;;;;;;0.77;0.68;;;13.00;99.90;;;;;;5063169;28;20079;-89
2021/12/31 02:21:13;;;;;;;1.33;0.65;;;13.00;99.90;;;;;;5062907;28;20043;-90
2021/12/31 02:23:46;;;;;;;4.43;2.25;;;13.00;99.90;;;;;;5071007;28;20412;-89
2021/12/31 02:26:13;;;;;;;2.60;0.68;;;13.00;99.90;;;;;;5082191;28;20077;-89
2021/12/31 02:28:39;;;;;;;6.55;1.35;;;13.00;99.90;;;;;;5082671;28;20035;-90
2021/12/31 02:31:06;;;;;;;6.30;1.55;;;13.00;99.90;;;;;;5082723;28;20503;-89
2021/12/31 02:33:32;;;;;;;1.63;0.40;;;13.00;99.90;;;;;;5099396;28;20050;-89
2021/12/31 02:35:59;;;;;;;3.88;0.80;;;13.00;99.90;;;;;;5081873;28;20164;-90
2021/12/31 02:38:24;;;;;;;13.30;2.22;;;13.00;99.90;;;;;;5064710;28;20036;-89
2021/12/31 02:40:50;;;;;;;3.85;1.83;;;13.10;99.90;;;;;;5062334;28;20042;-89
2021/12/31 02:43:15;;;;;;;2.53;1.17;;;13.10;99.90;;;;;;5062710;28;20032;-90
2021/12/31 02:45:42;;;;;;;2.60;1.08;;;13.10;99.90;;;;;;5062381;28;20040;-90
2021/12/31 02:48:08;;;;;;;3.45;1.25;;;13.10;99.90;;;;;;5095728;28;20062;-89
2021/12/31 02:50:39;;;;;;;3.30;1.83;;;13.20;99.90;;;;;;5082182;28;20032;-90
2021/12/31 02:53:08;;;;;;;5.68;2.30;;;13.20;99.90;;;;;;5082179;28;20062;-89
2021/12/31 02:55:38;;;;;;;2.63;1.63;;;13.20;99.90;;;;;;5082195;28;20039;-89
2021/12/31 02:58:06;;;;;;;1.63;0.95;;;13.20;99.90;;;;;;5081912;28;20035;-90
2021/12/31 03:00:33;;;;;;;1.73;0.88;;;13.20;99.90;;;;;;5081702;28;20061;-89
2021/12/31 03:03:00;;;;;;;6.93;2.10;;;13.20;99.90;;;;;;5080300;28;20082;-90
2021/12/31 03:05:28;;;;;;;2.92;1.50;;;13.20;99.90;;;;;;5082029;28;20044;-90
2021/12/31 03:07:55;;;;;;;3.35;1.77;;;13.20;99.90;;;;;;5081242;28;20035;-89
2021/12/31 03:10:22;;;;;;;5.45;2.35;;;13.30;99.90;;;;;;5081848;28;20393;-90
2021/12/31 03:12:50;;;;;;;3.38;1.92;;;13.30;99.90;;;;;;5080983;28;20064;-89
2021/12/31 03:15:17;;;;;;;3.83;1.30;;;13.30;99.90;;;;;;5080604;28;20039;-90
2021/12/31 03:17:44;;;;;;;4.72;2.47;;;13.30;99.90;;;;;;5080119;28;20043;-89
2021/12/31 03:20:13;;;;;;;6.15;1.92;;;13.30;99.90;;;;;;5080615;28;20224;-89
2021/12/31 03:22:40;;;;;;;4.95;1.20;;;13.30;99.90;;;;;;5080382;28;20047;-89
2021/12/31 03:25:07;;;;;;;2.45;1.33;;;13.30;99.90;;;;;;5080371;28;20459;-89
2021/12/31 03:27:33;;;;;;;7.68;1.90;;;13.30;99.90;;;;;;5079941;28;20039;-89
2021/12/31 03:29:59;;;;;;;4.82;1.98;;;13.30;99.90;;;;;;5080420;28;20065;-89
2021/12/31 03:32:25;;;;;;;1.35;0.98;;;13.30;99.90;;;;;;5080447;28;20393;-89
2021/12/31 03:34:50;;;;;;;2.33;1.00;;;13.30;99.90;;;;;;5080438;28;20036;-90
2021/12/31 03:37:16;;;;;;;4.38;1.92;;;13.30;99.90;;;;;;5079900;28;20062;-90
2021/12/31 03:39:42;;;;;;;3.50;1.77;;;13.30;99.90;;;;;;5080414;28;20047;-89
2021/12/31 03:42:07;;;;;;;0.75;0.45;;;13.30;99.90;;;;;;5080465;28;20126;-90
2021/12/31 03:44:33;;;;;;;2.33;1.30;;;13.30;99.90;;;;;;5080265;28;20542;-89
2021/12/31 03:46:59;;;;;;;5.38;2.05;;;13.30;99.90;;;;;;5079626;28;20036;-89
2021/12/31 03:49:24;;;;;;;3.85;1.38;;;13.30;99.90;;;;;;5096827;28;20067;-89
2021/12/31 03:51:50;;;;;;;1.60;0.95;;;13.30;99.90;;;;;;5079969;28;20071;-89
2021/12/31 03:54:15;;;;;;;5.93;2.40;;;13.20;99.90;;;;;;5080031;28;20036;-89
2021/12/31 03:56:41;;;;;;;2.33;1.35;;;13.30;99.90;;;;;;5079737;28;20142;-89
2021/12/31 03:59:07;;;;;;;3.28;1.88;;;13.30;99.90;;;;;;5080121;28;20062;-89
2021/12/31 04:01:32;;;;;;;1.75;1.10;;;13.30;99.90;;;;;;5080134;28;20048;-91
2021/12/31 04:03:58;;;;;;;6.93;1.90;;;13.30;99.90;;;;;;5079952;28;20083;-89
2021/12/31 04:06:23;;;;;;;2.45;1.23;;;13.20;99.90;;;;;;5077063;28;20032;-89
2021/12/31 04:08:50;;;;;;;2.92;1.38;;;13.40;99.90;;;;;;5059570;28;20431;-90
2021/12/31 04:11:17;;;;;;;2.87;1.63;;;13.20;99.90;;;;;;5040638;28;1018814;-90
2021/12/31 04:13:42;;;;;;;1.88;1.15;;;13.20;99.90;;;;;;5060343;28;20040;-89
2021/12/31 04:16:08;;;;;;;5.75;1.27;;;13.10;99.90;;;;;;5076741;28;20036;-89
2021/12/31 04:18:34;;;;;;;3.08;1.73;;;13.20;99.90;;;;;;5080446;28;20071;-89
2021/12/31 04:21:01;;;;;;;8.48;3.00;;;13.20;99.90;;;;;;5080469;28;20118;-90
2021/12/31 04:23:33;;;;;;;3.25;0.90;;;13.20;99.90;;;;;;5080332;28;20035;-90
2021/12/31 04:25:59;;;;;;;2.67;1.13;;;13.20;99.90;;;;;;5080452;28;20035;-90
2021/12/31 04:28:26;;;;;;;3.85;1.23;;;13.20;99.90;;;;;;5096054;28;20098;-89
2021/12/31 04:30:52;;;;;;;2.95;1.45;;;13.20;99.90;;;;;;5080426;28;20450;-90
2021/12/31 04:33:18;;;;;;;1.63;0.93;;;13.20;99.90;;;;;;5080264;28;20032;-90
2021/12/31 04:35:44;;;;;;;5.65;1.95;;;13.20;99.90;;;;;;5080250;28;20401;-89
2021/12/31 04:38:09;;;;;;;3.65;1.92;;;13.20;99.90;;;;;;5079572;28;20035;-90
2021/12/31 04:40:35;;;;;;;4.07;1.08;;;13.20;99.90;;;;;;5080165;28;20046;-91
2021/12/31 04:43:00;;;;;;;3.05;1.65;;;13.20;99.90;;;;;;5097133;28;20040;-89
2021/12/31 04:45:26;;;;;;;3.60;1.58;;;13.20;99.90;;;;;;5080275;28;20062;-89
2021/12/31 04:47:52;;;;;;;3.28;1.20;;;13.20;99.90;;;;;;5066098;28;20052;-89
2021/12/31 04:50:18;;;;;;;5.72;2.03;;;13.20;99.90;;;;;;5059996;28;20040;-89
2021/12/31 04:52:43;;;;;;;1.50;0.52;;;13.20;99.90;;;;;;5059661;28;20042;-89
2021/12/31 04:55:10;;;;;;;0.73;0.50;;;13.20;99.90;;;;;;5059981;28;20093;-89
2021/12/31 04:57:36;;;;;;;3.28;1.42;;;13.20;99.90;;;;;;5075970;28;20051;-90
2021/12/31 05:00:06;;;;;;;7.07;1.48;;;13.30;99.90;;;;;;5072139;28;20408;-89
2021/12/31 05:02:32;;;;;;;1.27;0.90;;;13.30;99.90;;;;;;5077353;28;20043;-89
2021/12/31 05:04:58;;;;;;;2.20;0.90;;;13.30;99.90;;;;;;5078781;28;20092;-89
2021/12/31 05:07:23;;;;;;;2.88;0.95;;;13.30;99.90;;;;;;5072991;28;20048;-89
2021/12/31 05:09:49;;;;;;;1.55;0.90;;;13.30;99.90;;;;;;5078864;28;20070;-90
2021/12/31 05:12:20;;;;;;;5.45;1.35;;;13.30;99.90;;;;;;5066018;28;20036;-89
2021/12/31 05:14:47;;;;;;;1.45;0.82;;;13.30;99.90;;;;;;5058697;28;20040;-89
2021/12/31 05:17:12;;;;;;;4.22;0.60;;;13.30;99.90;;;;;;5079302;28;20122;-89
2021/12/31 05:19:43;;;;;;;3.83;0.80;;;13.30;99.90;;;;;;5076949;28;20074;-89
2021/12/31 05:22:09;;;;;;;2.95;0.60;;;13.40;99.90;;;;;;5062444;28;20036;-89
2021/12/31 05:24:35;;;;;;;3.33;0.93;;;13.30;99.90;;;;;;5078473;28;20148;-89
2021/12/31 05:27:00;;;;;;;1.60;0.90;;;13.40;99.90;;;;;;5078118;28;20126;-88
2021/12/31 05:29:26;;;;;;;2.78;1.90;;;13.30;99.90;;;;;;5078246;28;20129;-89
2021/12/31 05:31:51;;;;;;;0.80;0.40;;;13.30;99.90;;;;;;5060334;28;20036;-89
2021/12/31 05:34:17;;;;;;;2.20;1.17;;;13.30;99.90;;;;;;5058436;28;20032;-89
2021/12/31 05:36:42;;;;;;;0.75;0.63;;;13.20;99.90;;;;;;5057869;28;20048;-90
2021/12/31 05:39:10;;;;;;;3.20;0.68;;;13.20;99.90;;;;;;5058684;28;20039;-89
2021/12/31 05:41:36;;;;;;;2.25;0.93;;;13.10;99.90;;;;;;5058193;28;20043;-89
2021/12/31 05:44:01;;;;;;;1.50;0.82;;;13.10;99.90;;;;;;5069460;28;20036;-89
2021/12/31 05:46:27;;;;;;;1.70;0.75;;;13.90;99.90;;;;;;5082043;28;20382;-89
2021/12/31 05:48:52;;;;;;;5.13;0.90;;;13.30;99.90;;;;;;5073961;28;20028;-89
2021/12/31 05:51:18;;;;;;;1.98;0.65;;;13.10;99.90;;;;;;5060602;28;20040;-88
2021/12/31 05:53:43;;;;;;;0.85;0.60;;;13.10;99.90;;;;;;5071355;28;20071;-89
2021/12/31 05:56:09;;;;;;;1.52;0.77;;;13.10;99.90;;;;;;5078201;28;20078;-89
2021/12/31 05:58:35;;;;;;;4.75;1.67;;;13.00;99.90;;;;;;5095268;28;20032;-88
2021/12/31 06:01:00;;;;;;;2.60;0.85;;;13.00;99.90;;;;;;5060062;28;20105;-89
2021/12/31 06:03:27;;;;;;;2.60;1.00;;;13.00;99.90;;;;;;5074705;28;20378;-89
2021/12/31 06:05:53;;;;;;;1.60;0.70;;;12.90;99.90;;;;;;5058228;28;20044;-88
2021/12/31 06:08:18;;;;;;;2.72;0.90;;;12.90;99.90;;;;;;5058985;28;20040;-89
2021/12/31 06:10:44;;;;;;;1.02;0.55;;;12.90;99.90;;;;;;5073715;28;20035;-89
2021/12/31 06:13:11;;;;;;;1.08;0.57;;;12.90;99.90;;;;;;5078163;28;20473;-89
2021/12/31 06:15:37;;;;;;;11.95;1.33;;;12.80;99.90;;;;;;5078009;28;20118;-88
2021/12/31 06:18:03;;;;;;;0.68;0.30;;;12.90;99.90;;;;;;5078067;28;20128;-89
2021/12/31 06:20:28;;;;;;;3.67;0.77;;;12.90;99.90;;;;;;5075153;28;20036;-89
2021/12/31 06:22:57;;;;;;;0.57;0.43;;;12.80;99.90;;;;;;5078106;28;20552;-88
2021/12/31 06:25:24;;;;;;;2.20;0.68;;;12.80;99.90;;;;;;5094667;28;20127;-88
2021/12/31 06:27:50;;;;;;;2.60;1.15;;;12.80;99.90;;;;;;5077355;28;20032;-89
2021/12/31 06:30:15;;;;;;;0.95;0.80;;;12.80;99.90;;;;;;5077798;28;20043;-89
2021/12/31 06:32:41;;;;;;;1.20;0.73;;;12.80;99.90;;;;;;5078016;28;20053;-89
2021/12/31 06:35:07;;;;;;;1.23;0.68;;;12.70;99.90;;;;;;5077687;28;20040;-88
2021/12/31 06:37:32;;;;;;;1.50;0.90;;;12.70;99.90;;;;;;5077130;28;20118;-88
2021/12/31 06:40:03;;;;;;;1.13;0.50;;;12.70;99.90;;;;;;5077716;28;20104;-88
2021/12/31 06:42:29;;;;;;;0.57;0.45;;;12.70;99.90;;;;;;5077804;28;20075;-88
2021/12/31 06:44:54;;;;;;;0.75;0.57;;;12.60;99.90;;;;;;5077670;28;20082;-88
2021/12/31 06:47:30;;;;;;;2.72;0.90;;;12.60;99.90;;;;;;5067973;28;20101;-89
2021/12/31 06:49:55;;;;;;;0.75;0.50;;;12.60;99.90;;;;;;5065438;28;20101;-88
2021/12/31 06:52:21;;;;;;;1.30;0.80;;;12.60;99.90;;;;;;5062538;28;20490;-89
2021/12/31 06:54:47;;;;;;;1.77;0.60;;;12.60;99.90;;;;;;5061265;28;20036;-89
2021/12/31 06:57:13;;;;;;;2.38;0.88;;;12.70;99.90;;;;;;5064900;28;20071;-88
2021/12/31 06:59:38;;;;;;;2.53;1.25;;;12.70;99.90;;;;;;5065103;28;20101;-89
2021/12/31 07:02:04;;;;;;;1.42;0.60;;;12.80;99.90;;;;;;5069428;28;20040;-88
2021/12/31 07:04:29;;;;;;;3.75;1.33;;;12.80;99.90;;;;;;5069272;28;20044;-88
2021/12/31 07:06:55;;;;;;;4.30;1.45;;;12.80;99.90;;;;;;5060491;28;20476;-89
2021/12/31 07:09:21;;;;;;;0.77;0.55;;;12.80;99.90;;;;;;5060755;28;20043;-89
2021/12/31 07:11:46;;;;;;;4.88;0.70;;;12.80;99.90;;;;;;5061153;28;20044;-89
2021/12/31 07:14:12;;;;;;;2.08;0.88;;;12.70;99.90;;;;;;5077898;28;20036;-88
2021/12/31 07:16:37;;;;;;;1.88;0.80;;;12.70;99.90;;;;;;5064864;28;20036;-89
2021/12/31 07:19:03;;;;;;;2.97;1.02;;;12.70;99.90;;;;;;5081059;28;20370;-89
2021/12/31 07:21:29;;;;;;;0.65;0.55;;;12.70;99.90;;;;;;5094074;28;20028;-89
2021/12/31 07:23:54;;;;;;;2.42;0.57;;;12.60;99.90;;;;;;5075642;28;20035;-89
2021/12/31 07:26:20;;;;;;;1.08;0.70;;;12.60;99.90;;;;;;5065474;28;20038;-88
2021/12/31 07:28:45;;;;;;;0.57;0.45;;;12.60;99.90;;;;;;5081117;28;20439;-89
2021/12/31 07:31:14;;;;;;;3.35;1.00;;;12.60;99.90;;;;;;5080628;28;20070;-89
2021/12/31 07:33:41;;;;;;;1.10;0.80;;;12.60;99.90;;;;;;5080331;28;20032;-88
2021/12/31 07:36:07;;;;;;;2.42;0.82;;;12.70;99.90;;;;;;5067470;28;20114;-89
2021/12/31 07:38:36;;;;;;;7.40;0.90;;;12.70;99.90;;;;;;5059942;28;20038;-88
2021/12/31 07:41:03;;;;;;;10.85;1.10;;;12.70;99.90;;;;;;5075952;28;20035;-89
2021/12/31 07:43:29;;;;;;;2.42;0.70;;;12.70;99.90;;;;;;5068669;28;20024;-88
2021/12/31 07:45:55;;;;;;;1.25;0.68;;;12.70;99.90;;;;;;5060282;28;20036;-89
2021/12/31 07:48:21;;;;;;;3.72;0.82;;;12.70;99.90;;;;;;5063482;28;20032;-88
2021/12/31 07:50:48;;;;;;;3.13;0.82;;;12.70;99.90;;;;;;5060338;28;20493;-88
2021/12/31 07:53:14;;;;;;;2.67;0.98;;;12.60;99.90;;;;;;5076631;28;20431;-88
2021/12/31 07:55:40;;;;;;;0.82;0.50;;;12.60;99.90;;;;;;5072436;28;20032;-89
2021/12/31 07:58:05;;;;;;;5.20;1.10;;;12.70;99.90;;;;;;5059598;28;20043;-89
2021/12/31 08:00:31;;;;;;;2.55;1.48;;;12.70;99.90;;;;;;5065092;28;20039;-89
2021/12/31 08:02:58;;;;;;;4.72;1.35;;;12.70;99.90;;;;;;5058955;28;20081;-89
2021/12/31 08:05:25;;;;;;;1.20;0.68;;;12.70;99.90;;;;;;5059994;28;20040;-89
2021/12/31 08:07:51;;;;;;;1.65;0.68;;;12.70;99.90;;;;;;5074311;28;20039;-88
2021/12/31 08:10:17;;;;;;;1.13;0.65;;;12.70;99.90;;;;;;5089986;28;20078;-88
2021/12/31 08:12:42;;;;;;;1.10;0.55;;;12.70;99.90;;;;;;5080012;28;20537;-89
2021/12/31 08:15:08;;;;;;;2.42;0.93;;;12.70;99.90;;;;;;5096649;28;20070;-89
2021/12/31 08:17:34;;;;;;;0.47;0.40;;;12.80;99.90;;;;;;5066355;28;20126;-89
2021/12/31 08:19:59;;;;;;;3.58;1.25;;;12.90;99.90;;;;;;5065192;28;20462;-89
2021/12/31 08:22:25;;;;;;;1.20;0.75;;;12.80;99.90;;;;;;5079543;28;20082;-89
2021/12/31 08:24:51;;;;;;;1.17;0.70;;;12.80;99.90;;;;;;5096539;28;20032;-89
2021/12/31 08:27:17;;;;;;;1.83;0.90;;;12.80;99.90;;;;;;5054442;28;20036;-89
2021/12/31 08:29:43;;;;;;;2.53;0.63;;;12.70;99.90;;;;;;5059533;28;20032;-89
2021/12/31 08:32:09;;;;;;;4.57;1.85;;;12.80;99.90;;;;;;5061282;28;20413;-89
2021/12/31 08:34:34;;;;;;;2.35;1.15;;;12.80;99.90;;;;;;5058838;28;20111;-89
2021/12/31 08:37:00;;;;;;;1.48;0.90;;;12.80;99.90;;;;;;5058736;28;20561;-88
2021/12/31 08:39:26;;;;;;;1.52;0.95;;;12.80;99.90;;;;;;5059030;28;20437;-88
2021/12/31 08:41:51;;;;;;;1.95;0.70;;;12.90;99.90;;;;;;5076005;28;20036;-88
2021/12/31 08:44:17;;;;;;;1.10;0.60;;;12.90;99.90;;;;;;5059241;28;20071;-89
2021/12/31 08:46:44;;;;;;;0.75;0.52;;;12.90;99.90;;;;;;5058466;28;20043;-88
2021/12/31 08:49:09;;;;;;;4.05;0.90;;;12.90;99.90;;;;;;5075846;28;20044;-87
2021/12/31 08:51:35;;;;;;;1.33;0.98;;;12.90;99.90;;;;;;5058944;28;20044;-88
2021/12/31 08:54:01;;;;;;;1.10;0.68;;;12.90;99.90;;;;;;5075539;28;20070;-88
2021/12/31 08:56:27;;;;;;;2.47;1.48;;;12.90;99.90;;;;;;5059110;28;20063;-88
2021/12/31 08:58:52;;;;;;;3.25;0.98;;;12.90;99.90;;;;;;5070447;28;20031;-88
2021/12/31 09:01:18;;;;;;;1.65;0.75;;;12.90;99.90;;;;;;5095855;28;20118;-88
2021/12/31 09:03:55;;;;;;;6.38;1.92;;;12.80;99.90;;;;;;5067479;28;20032;-89
2021/12/31 09:06:21;;;;;;;0.52;0.43;;;12.80;99.90;;;;;;5057507;28;20508;-88
2021/12/31 09:08:47;;;;;;;0.68;0.43;;;12.80;99.90;;;;;;5041707;28;20048;-89
2021/12/31 09:11:14;;;;;;;1.67;0.90;;;12.80;99.90;;;;;;5058151;28;20094;-88
2021/12/31 09:13:41;;;;;;;1.45;0.52;;;12.90;99.90;;;;;;5057998;28;20636;-88
2021/12/31 09:16:08;;;;;;;2.72;0.85;;;12.80;99.90;;;;;;5080180;28;20035;-89
2021/12/31 09:18:33;;;;;;;3.88;1.10;;;12.90;99.90;;;;;;5059771;28;20039;-89
2021/12/31 09:20:59;;;;;;;4.07;1.67;;;12.90;99.90;;;;;;5066014;28;20408;-89
2021/12/31 09:23:24;;;;;;;0.38;0.20;;;12.90;99.90;;;;;;5069679;28;20042;-86
2021/12/31 09:25:50;;;;;;;0.50;0.40;;;12.90;99.90;;;;;;5078228;28;20507;-86
2021/12/31 09:28:16;;;;;;;4.13;0.82;;;12.90;99.90;;;;;;5066473;28;20040;-87
2021/12/31 09:30:42;;;;;;;1.42;0.70;;;12.90;99.90;;;;;;5057715;28;20063;-89
2021/12/31 09:33:08;;;;;;;1.85;0.85;;;13.00;99.90;;;;;;5074748;28;20123;-88
2021/12/31 09:35:34;;;;;;;3.50;0.90;;;13.00;99.90;;;;;;5074652;28;20074;-89
2021/12/31 09:38:00;;;;;;;3.92;1.25;;;13.00;99.90;;;;;;5057503;28;20039;-89
2021/12/31 09:40:27;;;;;;;1.27;0.77;;;12.90;99.90;;;;;;5057781;28;20382;-89
2021/12/31 09:43:04;;;;;;;3.45;1.10;;;13.00;99.90;;;;;;5069682;28;20051;-88
2021/12/31 09:45:32;;;;;;;4.05;1.08;;;13.00;99.90;;;;;;5077151;28;20126;-89
2021/12/31 09:47:59;;;;;;;0.90;0.70;;;13.00;99.90;;;;;;5073765;28;20059;-88
2021/12/31 09:50:26;;;;;;;1.27;0.98;;;12.90;99.90;;;;;;5060384;28;20032;-88
2021/12/31 09:52:54;;;;;;;1.13;0.70;;;12.90;99.90;;;;;;5057450;28;20036;-88
2021/12/31 09:55:37;;;;;;;3.45;1.02;;;12.90;99.90;;;;;;5081861;28;20036;-88
2021/12/31 09:58:03;;;;;;;2.20;0.95;;;12.90;99.90;;;;;;5077260;28;20047;-88
2021/12/31 10:00:29;;;;;;;2.35;0.80;;;12.90;99.90;;;;;;5077491;28;20044;-88
2021/12/31 10:03:18;;;;;;;1.30;0.70;;;12.90;99.90;;;;;;5069430;28;20449;-89
2021/12/31 10:05:46;;;;;;;0.98;0.88;;;12.90;99.90;;;;;;5057979;28;20051;-88
2021/12/31 10:08:23;;;;;;;2.33;1.08;;;12.90;99.90;;;;;;5059143;28;20440;-89
2021/12/31 10:11:07;;;;;;;1.92;0.82;;;12.90;99.90;;;;;;5086228;28;20039;-89
2021/12/31 10:13:35;;;;;;;0.38;0.30;;;12.90;99.90;;;;;;5084317;28;20074;-89
2021/12/31 10:16:01;;;;;;;1.00;0.55;;;12.90;99.90;;;;;;5085786;28;21022;-89
2021/12/31 10:18:35;;;;;;;1.90;0.68;;;12.90;99.90;;;;;;5060430;28;20058;-89
2021/12/31 10:21:02;;;;;;;3.67;1.08;;;12.90;99.90;;;;;;5071527;28;20031;-89
2021/12/31 10:23:28;;;;;;;1.15;0.70;;;12.90;99.90;;;;;;5068397;28;20452;-89
2021/12/31 10:26:11;;;;;;;1.13;0.70;;;12.90;99.90;;;;;;5063050;28;20032;-89
2021/12/31 10:28:50;;;;;;;2.05;1.05;;;12.90;99.90;;;;;;5086738;28;20032;-89
2021/12/31 10:31:15;;;;;;;0.52;0.43;;;12.90;99.90;;;;;;5074070;28;20031;-89
2021/12/31 10:33:43;;;;;;;2.42;1.20;;;12.90;99.90;;;;;;5073699;28;20074;-89
2021/12/31 10:36:08;;;;;;;2.83;0.95;;;12.90;99.90;;;;;;5066179;28;20080;-89
2021/12/31 10:38:39;;;;;;;0.82;0.68;;;12.90;99.90;;;;;;5070503;28;20040;-88
2021/12/31 10:41:06;;;;;;;2.28;1.08;;;12.90;99.90;;;;;;5073082;28;20381;-88
2021/12/31 10:43:32;;;;;;;1.30;0.85;;;12.90;99.90;;;;;;5060993;28;20119;-89
2021/12/31 10:46:10;;;;;;;0.63;0.32;;;12.90;99.90;;;;;;5061803;28;20074;-90
2021/12/31 10:48:44;;;;;;;4.68;1.65;;;12.80;99.90;;;;;;5061670;28;20074;-89
2021/12/31 10:51:41;;;;;;;1.13;0.60;;;12.80;99.90;;;;;;5079817;28;20481;-88
2021/12/31 10:57:08;;;;;;;2.22;1.38;;;12.70;99.90;;;;;;5090356;28;20097;-88
2021/12/31 10:59:37;;;;;;;2.05;0.80;;;12.70;99.90;;;;;;5078973;28;20036;-88
2021/12/31 11:02:04;;;;;;;0.73;0.60;;;12.70;99.90;;;;;;5079054;28;20104;-88
2021/12/31 11:04:32;;;;;;;0.95;0.80;;;12.70;99.90;;;;;;5077007;28;20036;-88
2021/12/31 11:06:59;;;;;;;1.65;0.88;;;12.60;99.90;;;;;;5072245;28;20036;-88
2021/12/31 11:09:26;;;;;;;3.88;2.58;;;12.60;99.90;;;;;;5086272;27;20063;-88
2021/12/31 11:11:53;;;;;;;0.70;0.50;;;12.60;99.90;;;;;;5100668;27;20392;-88
2021/12/31 11:14:18;;;;;;;2.53;1.23;;;12.60;99.90;;;;;;5100437;27;20084;-88
2021/12/31 11:16:45;;;;;;;4.00;1.63;;;12.60;99.90;;;;;;5084186;28;20040;-88
2021/12/31 11:19:12;;;;;;;1.63;0.90;;;12.60;99.90;;;;;;5093957;28;20127;-88
2021/12/31 11:21:38;;;;;;;2.75;1.27;;;12.60;99.90;;;;;;5066335;28;20054;-87
2021/12/31 11:24:33;;;;;;;2.88;1.35;;;12.50;99.90;;;;;;5065621;28;20039;-88
2021/12/31 11:27:19;;;;;;;1.02;0.75;;;12.60;99.90;;;;;;5073443;28;20040;-88
2021/12/31 11:29:44;;;;;;;;;;;12.50;99.90;;;;;;5060294;28;20079;-88
2021/12/31 11:32:10;;;;;;;2.10;1.25;;;12.50;99.90;;;;;;5059759;28;20719;-88
2021/12/31 11:34:37;;;;;;;1.67;1.33;;;12.50;99.90;;;;;;5059924;28;20064;-88
2021/12/31 11:37:03;;;;;;;3.08;1.40;;;12.60;99.90;;;;;;5064939;28;20046;-88
2021/12/31 11:39:33;;;;;;;1.35;0.75;;;12.60;99.90;;;;;;5079467;28;20036;-88
2021/12/31 11:42:01;;;;;;;3.13;0.77;;;12.60;99.90;;;;;;5074341;28;20036;-88
2021/12/31 11:44:28;;;;;;;2.13;1.05;;;12.60;99.90;;;;;;5059483;28;20036;-88
2021/12/31 11:47:13;;;;;;;3.60;1.55;;;12.60;99.90;;;;;;5072019;28;20447;-88
2021/12/31 11:49:39;;;;;;;0.22;0.20;;;12.60;99.90;;;;;;5072083;28;20044;-87
2021/12/31 11:52:08;;;;;;;4.38;2.03;;;12.60;99.90;;;;;;5059348;28;20505;-87
2021/12/31 11:54:40;;;;;;;3.60;1.75;;;12.60;99.90;;;;;;5065370;28;20032;-88
2021/12/31 11:57:17;;;;;;;2.15;1.15;;;12.60;99.90;;;;;;5079016;28;20069;-88
2021/12/31 11:59:49;;;;;;;5.30;2.83;;;12.60;99.90;;;;;;5076123;28;20043;-87
2021/12/31 12:02:20;;;;;;;1.85;1.00;;;12.60;99.90;;;;;;5063595;28;20400;-88
2021/12/31 12:04:58;;;;;;;2.38;1.02;;;12.60;99.90;;;;;;5063873;28;20043;-88
2021/12/31 12:07:38;;;;;;;1.60;0.93;;;12.50;99.90;;;;;;5075815;28;20044;-88
2021/12/31 12:10:04;;;;;;;3.17;1.67;;;12.60;99.90;;;;;;5085394;28;20107;-87
2021/12/31 12:12:35;;;;;;;1.98;1.10;;;12.60;99.90;;;;;;5059240;28;20139;-87
2021/12/31 12:15:40;;;;;;;2.75;1.38;;;12.60;99.90;;;;;;5059112;28;20036;-87
2021/12/31 12:18:06;;;;;;;3.28;1.88;;;12.60;99.90;;;;;;5041960;28;20047;-87
2021/12/31 12:20:34;;;;;;;6.63;2.20;;;12.60;99.90;;;;;;5064960;28;20446;-87
2021/12/31 12:23:00;;;;;;;9.00;3.72;;;12.60;99.90;;;;;;5078732;28;20035;-88
2021/12/31 12:25:31;;;;;;;4.38;2.22;;;12.60;99.90;;;;;;5079238;28;20036;-88
2021/12/31 12:28:02;;;;;;;4.10;2.10;;;12.60;99.90;;;;;;5078410;28;20146;-89
2021/12/31 12:30:29;;;;;;;1.20;0.85;;;12.50;99.90;;;;;;5080196;28;20401;-89
2021/12/31 12:35:43;;;;;;;6.82;1.70;;;12.30;99.90;;;;;;5076247;28;20086;-89
2021/12/31 12:38:14;;;;;;;2.17;1.30;;;12.30;99.90;;;;;;5058064;28;20047;-88
2021/12/31 12:40:41;;;;;;;2.88;1.73;;;12.20;99.90;;;;;;5058724;28;20050;-89
2021/12/31 12:43:35;;;;;;;0.65;0.55;;;12.20;99.90;;;;;;5073218;28;20039;-88
2021/12/31 12:46:07;;;;;;;1.08;0.80;;;12.10;99.90;;;;;;5084160;28;20051;-88
2021/12/31 12:48:38;;;;;;;1.83;0.70;;;12.00;99.90;;;;;;5078190;28;20051;-89
2021/12/31 12:51:12;;;;;;;0.65;0.45;;;12.00;99.90;;;;;;5078674;28;20473;-88
2021/12/31 12:53:41;;;;;;;2.20;1.33;;;12.00;99.90;;;;;;5078630;28;20065;-88
2021/12/31 12:56:13;;;;;;;1.35;0.80;;;11.90;99.90;;;;;;5058076;28;20040;-89